sensor_id;sensor_type;location;lat;lon;timestamp;P1;durP1;ratioP1;P2;durP2;ratioP2
24713;SDS011;12820;51.580;5.010;2023-04-06T00:03:17;21.08;;;12.35;;
24713;SDS011;12820;51.580;5.010;2023-04-06T00:08:20;25.52;;;11.95;;
24713;SDS011;12820;51.580;5.010;2023-04-06T00:13:23;22.45;;;12.13;;
24713;SDS011;12820;51.580;5.010;2023-04-06T00:18:25;21.25;;;12.05;;
24713;SDS011;12820;51.580;5.010;2023-04-06T00:23:28;20.77;;;12.25;;
24713;SDS011;12820;51.580;5.010;2023-04-06T00:28:30;22.90;;;12.63;;
24713;SDS011;12820;51.580;5.010;2023-04-06T00:33:32;20.55;;;12.50;;
24713;SDS011;12820;51.580;5.010;2023-04-06T00:38:34;24.75;;;13.00;;
24713;SDS011;12820;51.580;5.010;2023-04-06T00:43:36;26.40;;;13.30;;
24713;SDS011;12820;51.580;5.010;2023-04-06T00:48:39;26.92;;;13.48;;
24713;SDS011;12820;51.580;5.010;2023-04-06T00:53:42;25.42;;;14.45;;
24713;SDS011;12820;51.580;5.010;2023-04-06T00:58:46;21.27;;;12.45;;
24713;SDS011;12820;51.580;5.010;2023-04-06T01:03:49;21.80;;;13.07;;
24713;SDS011;12820;51.580;5.010;2023-04-06T01:08:53;24.02;;;13.00;;
24713;SDS011;12820;51.580;5.010;2023-04-06T01:13:59;19.90;;;12.60;;
24713;SDS011;12820;51.580;5.010;2023-04-06T01:19:09;25.08;;;14.18;;
24713;SDS011;12820;51.580;5.010;2023-04-06T01:24:15;25.63;;;13.43;;
24713;SDS011;12820;51.580;5.010;2023-04-06T01:29:46;24.10;;;13.55;;
24713;SDS011;12820;51.580;5.010;2023-04-06T01:34:56;25.13;;;13.32;;
24713;SDS011;12820;51.580;5.010;2023-04-06T01:39:59;26.25;;;14.07;;
24713;SDS011;12820;51.580;5.010;2023-04-06T01:45:14;23.92;;;14.35;;
24713;SDS011;12820;51.580;5.010;2023-04-06T01:50:18;27.52;;;15.30;;
24713;SDS011;12820;51.580;5.010;2023-04-06T01:55:21;25.42;;;14.32;;
24713;SDS011;12820;51.580;5.010;2023-04-06T02:00:42;25.52;;;14.30;;
24713;SDS011;12820;51.580;5.010;2023-04-06T02:05:45;28.30;;;15.43;;
24713;SDS011;12820;51.580;5.010;2023-04-06T02:10:57;27.65;;;14.93;;
24713;SDS011;12820;51.580;5.010;2023-04-06T02:16:07;29.35;;;15.05;;
24713;SDS011;12820;51.580;5.010;2023-04-06T02:21:10;28.80;;;14.15;;
24713;SDS011;12820;51.580;5.010;2023-04-06T02:26:13;27.30;;;14.05;;
24713;SDS011;12820;51.580;5.010;2023-04-06T02:31:15;27.38;;;15.05;;
24713;SDS011;12820;51.580;5.010;2023-04-06T02:36:19;31.50;;;15.65;;
24713;SDS011;12820;51.580;5.010;2023-04-06T02:41:21;25.98;;;14.40;;
24713;SDS011;12820;51.580;5.010;2023-04-06T02:46:24;27.80;;;15.00;;
24713;SDS011;12820;51.580;5.010;2023-04-06T02:51:27;29.65;;;15.30;;
24713;SDS011;12820;51.580;5.010;2023-04-06T02:56:37;31.65;;;15.80;;
24713;SDS011;12820;51.580;5.010;2023-04-06T03:01:39;27.30;;;15.57;;
24713;SDS011;12820;51.580;5.010;2023-04-06T03:06:43;28.67;;;15.30;;
24713;SDS011;12820;51.580;5.010;2023-04-06T03:11:57;28.15;;;15.48;;
24713;SDS011;12820;51.580;5.010;2023-04-06T03:17:00;32.72;;;15.57;;
24713;SDS011;12820;51.580;5.010;2023-04-06T03:22:02;28.20;;;15.32;;
24713;SDS011;12820;51.580;5.010;2023-04-06T03:27:04;26.92;;;14.57;;
24713;SDS011;12820;51.580;5.010;2023-04-06T03:32:06;26.90;;;14.20;;
24713;SDS011;12820;51.580;5.010;2023-04-06T03:37:24;25.70;;;14.45;;
24713;SDS011;12820;51.580;5.010;2023-04-06T03:42:30;31.10;;;15.32;;
24713;SDS011;12820;51.580;5.010;2023-04-06T03:47:40;31.27;;;15.35;;
24713;SDS011;12820;51.580;5.010;2023-04-06T03:52:43;28.98;;;15.23;;
24713;SDS011;12820;51.580;5.010;2023-04-06T03:57:46;29.27;;;15.13;;
24713;SDS011;12820;51.580;5.010;2023-04-06T04:02:48;29.48;;;15.20;;
24713;SDS011;12820;51.580;5.010;2023-04-06T04:07:53;32.00;;;15.32;;
24713;SDS011;12820;51.580;5.010;2023-04-06T04:13:00;32.53;;;14.98;;
24713;SDS011;12820;51.580;5.010;2023-04-06T04:18:03;30.65;;;15.23;;
24713;SDS011;12820;51.580;5.010;2023-04-06T04:23:06;29.92;;;15.70;;
24713;SDS011;12820;51.580;5.010;2023-04-06T04:28:09;28.50;;;14.82;;
24713;SDS011;12820;51.580;5.010;2023-04-06T04:33:13;28.90;;;14.82;;
24713;SDS011;12820;51.580;5.010;2023-04-06T04:38:17;28.50;;;14.60;;
24713;SDS011;12820;51.580;5.010;2023-04-06T04:43:25;33.65;;;15.43;;
24713;SDS011;12820;51.580;5.010;2023-04-06T04:48:28;31.52;;;15.57;;
24713;SDS011;12820;51.580;5.010;2023-04-06T04:53:34;30.42;;;15.60;;
24713;SDS011;12820;51.580;5.010;2023-04-06T04:58:47;27.65;;;15.07;;
24713;SDS011;12820;51.580;5.010;2023-04-06T05:03:54;26.88;;;14.68;;
24713;SDS011;12820;51.580;5.010;2023-04-06T05:08:57;28.25;;;14.10;;
24713;SDS011;12820;51.580;5.010;2023-04-06T05:13:59;27.30;;;14.00;;
24713;SDS011;12820;51.580;5.010;2023-04-06T05:19:03;28.55;;;14.15;;
24713;SDS011;12820;51.580;5.010;2023-04-06T05:24:13;30.93;;;15.63;;
24713;SDS011;12820;51.580;5.010;2023-04-06T05:29:19;32.20;;;14.88;;
24713;SDS011;12820;51.580;5.010;2023-04-06T05:34:22;29.98;;;15.30;;
24713;SDS011;12820;51.580;5.010;2023-04-06T05:39:25;28.88;;;15.02;;
24713;SDS011;12820;51.580;5.010;2023-04-06T05:44:28;28.88;;;15.07;;
24713;SDS011;12820;51.580;5.010;2023-04-06T05:49:41;29.63;;;15.48;;
24713;SDS011;12820;51.580;5.010;2023-04-06T05:54:49;32.63;;;15.98;;
24713;SDS011;12820;51.580;5.010;2023-04-06T05:59:52;35.45;;;16.00;;
24713;SDS011;12820;51.580;5.010;2023-04-06T06:04:56;31.20;;;16.10;;
24713;SDS011;12820;51.580;5.010;2023-04-06T06:10:00;28.13;;;15.48;;
24713;SDS011;12820;51.580;5.010;2023-04-06T06:15:07;30.73;;;16.52;;
24713;SDS011;12820;51.580;5.010;2023-04-06T06:20:13;32.35;;;16.60;;
24713;SDS011;12820;51.580;5.010;2023-04-06T06:25:17;31.30;;;17.38;;
24713;SDS011;12820;51.580;5.010;2023-04-06T06:30:22;32.67;;;16.52;;
24713;SDS011;12820;51.580;5.010;2023-04-06T06:35:25;31.17;;;16.30;;
24713;SDS011;12820;51.580;5.010;2023-04-06T06:40:28;36.58;;;15.63;;
24713;SDS011;12820;51.580;5.010;2023-04-06T06:45:31;33.65;;;16.08;;
24713;SDS011;12820;51.580;5.010;2023-04-06T06:50:33;30.92;;;15.65;;
24713;SDS011;12820;51.580;5.010;2023-04-06T06:55:35;28.40;;;16.77;;
24713;SDS011;12820;51.580;5.010;2023-04-06T07:00:37;29.35;;;16.00;;
24713;SDS011;12820;51.580;5.010;2023-04-06T07:05:45;33.03;;;16.85;;
24713;SDS011;12820;51.580;5.010;2023-04-06T07:10:53;30.98;;;16.85;;
24713;SDS011;12820;51.580;5.010;2023-04-06T07:15:58;37.88;;;17.25;;
24713;SDS011;12820;51.580;5.010;2023-04-06T07:21:00;33.50;;;17.90;;
24713;SDS011;12820;51.580;5.010;2023-04-06T07:26:02;36.13;;;17.60;;
24713;SDS011;12820;51.580;5.010;2023-04-06T07:31:05;36.13;;;17.70;;
24713;SDS011;12820;51.580;5.010;2023-04-06T07:36:07;32.63;;;17.30;;
24713;SDS011;12820;51.580;5.010;2023-04-06T07:41:09;31.98;;;18.42;;
24713;SDS011;12820;51.580;5.010;2023-04-06T07:46:11;34.28;;;18.88;;
24713;SDS011;12820;51.580;5.010;2023-04-06T07:51:14;32.03;;;17.83;;
24713;SDS011;12820;51.580;5.010;2023-04-06T07:56:19;36.42;;;19.45;;
24713;SDS011;12820;51.580;5.010;2023-04-06T08:01:22;32.72;;;18.92;;
24713;SDS011;12820;51.580;5.010;2023-04-06T08:06:24;34.55;;;19.00;;
24713;SDS011;12820;51.580;5.010;2023-04-06T08:11:26;32.58;;;18.60;;
24713;SDS011;12820;51.580;5.010;2023-04-06T08:16:29;34.33;;;19.40;;
24713;SDS011;12820;51.580;5.010;2023-04-06T08:21:31;34.83;;;18.02;;
24713;SDS011;12820;51.580;5.010;2023-04-06T08:26:34;36.30;;;18.88;;
24713;SDS011;12820;51.580;5.010;2023-04-06T08:31:36;34.65;;;19.20;;
24713;SDS011;12820;51.580;5.010;2023-04-06T08:36:39;36.58;;;19.38;;
24713;SDS011;12820;51.580;5.010;2023-04-06T08:41:41;32.75;;;19.15;;
24713;SDS011;12820;51.580;5.010;2023-04-06T08:46:45;35.13;;;19.95;;
24713;SDS011;12820;51.580;5.010;2023-04-06T08:51:48;32.13;;;18.63;;
24713;SDS011;12820;51.580;5.010;2023-04-06T08:56:51;34.15;;;17.30;;
24713;SDS011;12820;51.580;5.010;2023-04-06T09:01:54;29.13;;;16.77;;
24713;SDS011;12820;51.580;5.010;2023-04-06T09:06:58;27.35;;;15.77;;
24713;SDS011;12820;51.580;5.010;2023-04-06T09:12:01;27.38;;;15.10;;
24713;SDS011;12820;51.580;5.010;2023-04-06T09:17:07;23.30;;;13.25;;
24713;SDS011;12820;51.580;5.010;2023-04-06T09:22:09;23.13;;;14.45;;
24713;SDS011;12820;51.580;5.010;2023-04-06T09:27:12;24.58;;;13.73;;
24713;SDS011;12820;51.580;5.010;2023-04-06T09:32:14;22.48;;;13.20;;
24713;SDS011;12820;51.580;5.010;2023-04-06T09:37:19;21.85;;;12.25;;
24713;SDS011;12820;51.580;5.010;2023-04-06T09:42:24;20.98;;;12.05;;
24713;SDS011;12820;51.580;5.010;2023-04-06T09:47:30;17.70;;;10.43;;
24713;SDS011;12820;51.580;5.010;2023-04-06T09:52:33;17.98;;;9.77;;
24713;SDS011;12820;51.580;5.010;2023-04-06T10:08:27;17.55;;;9.27;;
24713;SDS011;12820;51.580;5.010;2023-04-06T10:13:33;16.75;;;9.25;;
24713;SDS011;12820;51.580;5.010;2023-04-06T10:18:36;19.50;;;10.30;;
24713;SDS011;12820;51.580;5.010;2023-04-06T10:23:41;15.75;;;9.32;;
24713;SDS011;12820;51.580;5.010;2023-04-06T10:28:49;22.08;;;12.05;;
24713;SDS011;12820;51.580;5.010;2023-04-06T10:33:55;22.35;;;10.70;;
24713;SDS011;12820;51.580;5.010;2023-04-06T10:38:59;17.17;;;10.65;;
24713;SDS011;12820;51.580;5.010;2023-04-06T10:44:04;16.52;;;9.13;;
24713;SDS011;12820;51.580;5.010;2023-04-06T10:49:09;16.20;;;9.73;;
24713;SDS011;12820;51.580;5.010;2023-04-06T10:54:13;15.35;;;9.93;;
24713;SDS011;12820;51.580;5.010;2023-04-06T10:59:21;15.00;;;8.93;;
24713;SDS011;12820;51.580;5.010;2023-04-06T11:04:24;14.35;;;9.02;;
24713;SDS011;12820;51.580;5.010;2023-04-06T11:09:27;16.80;;;9.35;;
24713;SDS011;12820;51.580;5.010;2023-04-06T11:14:31;15.05;;;9.50;;
24713;SDS011;12820;51.580;5.010;2023-04-06T11:19:33;16.02;;;8.63;;
24713;SDS011;12820;51.580;5.010;2023-04-06T11:24:36;13.80;;;8.70;;
24713;SDS011;12820;51.580;5.010;2023-04-06T11:29:38;15.20;;;9.40;;
24713;SDS011;12820;51.580;5.010;2023-04-06T11:34:46;13.88;;;9.07;;
24713;SDS011;12820;51.580;5.010;2023-04-06T11:39:50;16.55;;;9.30;;
24713;SDS011;12820;51.580;5.010;2023-04-06T11:44:54;17.23;;;10.10;;
24713;SDS011;12820;51.580;5.010;2023-04-06T11:50:05;17.52;;;10.43;;
24713;SDS011;12820;51.580;5.010;2023-04-06T11:55:12;19.35;;;11.15;;
24713;SDS011;12820;51.580;5.010;2023-04-06T12:00:16;18.27;;;10.93;;
24713;SDS011;12820;51.580;5.010;2023-04-06T12:05:18;17.95;;;10.43;;
24713;SDS011;12820;51.580;5.010;2023-04-06T12:10:20;17.05;;;10.57;;
24713;SDS011;12820;51.580;5.010;2023-04-06T12:15:22;22.45;;;11.20;;
24713;SDS011;12820;51.580;5.010;2023-04-06T12:20:25;17.27;;;11.15;;
24713;SDS011;12820;51.580;5.010;2023-04-06T12:25:28;17.38;;;10.68;;
24713;SDS011;12820;51.580;5.010;2023-04-06T12:30:32;21.65;;;11.65;;
24713;SDS011;12820;51.580;5.010;2023-04-06T12:35:34;17.25;;;11.02;;
24713;SDS011;12820;51.580;5.010;2023-04-06T12:40:39;19.73;;;12.13;;
24713;SDS011;12820;51.580;5.010;2023-04-06T12:45:41;20.10;;;12.38;;
24713;SDS011;12820;51.580;5.010;2023-04-06T12:50:43;17.23;;;11.10;;
24713;SDS011;12820;51.580;5.010;2023-04-06T12:55:46;18.23;;;11.68;;
24713;SDS011;12820;51.580;5.010;2023-04-06T13:00:48;17.85;;;11.18;;
24713;SDS011;12820;51.580;5.010;2023-04-06T13:05:52;19.60;;;12.43;;
24713;SDS011;12820;51.580;5.010;2023-04-06T13:10:54;20.05;;;12.30;;
24713;SDS011;12820;51.580;5.010;2023-04-06T13:16:03;18.92;;;12.07;;
24713;SDS011;12820;51.580;5.010;2023-04-06T13:21:07;21.75;;;13.43;;
24713;SDS011;12820;51.580;5.010;2023-04-06T13:26:10;18.30;;;11.55;;
24713;SDS011;12820;51.580;5.010;2023-04-06T13:31:12;21.55;;;14.65;;
24713;SDS011;12820;51.580;5.010;2023-04-06T13:36:14;21.15;;;12.88;;
24713;SDS011;12820;51.580;5.010;2023-04-06T13:41:22;15.10;;;10.32;;
24713;SDS011;12820;51.580;5.010;2023-04-06T13:46:26;18.17;;;11.57;;
24713;SDS011;12820;51.580;5.010;2023-04-06T13:51:29;17.08;;;11.60;;
24713;SDS011;12820;51.580;5.010;2023-04-06T13:56:32;17.40;;;11.32;;
24713;SDS011;12820;51.580;5.010;2023-04-06T14:01:34;21.23;;;13.50;;
24713;SDS011;12820;51.580;5.010;2023-04-06T14:06:36;19.33;;;12.10;;
24713;SDS011;12820;51.580;5.010;2023-04-06T14:11:39;22.00;;;12.15;;
24713;SDS011;12820;51.580;5.010;2023-04-06T14:16:41;19.02;;;12.02;;
24713;SDS011;12820;51.580;5.010;2023-04-06T14:21:46;20.77;;;12.80;;
24713;SDS011;12820;51.580;5.010;2023-04-06T14:26:49;22.35;;;13.15;;
24713;SDS011;12820;51.580;5.010;2023-04-06T14:31:51;23.63;;;14.00;;
24713;SDS011;12820;51.580;5.010;2023-04-06T14:36:56;20.50;;;13.27;;
24713;SDS011;12820;51.580;5.010;2023-04-06T14:41:58;20.45;;;12.10;;
24713;SDS011;12820;51.580;5.010;2023-04-06T14:47:00;21.35;;;13.07;;
24713;SDS011;12820;51.580;5.010;2023-04-06T14:52:03;21.27;;;13.35;;
24713;SDS011;12820;51.580;5.010;2023-04-06T14:57:06;21.73;;;13.48;;
24713;SDS011;12820;51.580;5.010;2023-04-06T15:02:08;22.50;;;13.93;;
24713;SDS011;12820;51.580;5.010;2023-04-06T15:07:10;22.10;;;14.48;;
24713;SDS011;12820;51.580;5.010;2023-04-06T15:12:12;18.63;;;13.07;;
24713;SDS011;12820;51.580;5.010;2023-04-06T15:17:15;22.80;;;13.73;;
24713;SDS011;12820;51.580;5.010;2023-04-06T15:22:17;22.25;;;14.20;;
24713;SDS011;12820;51.580;5.010;2023-04-06T15:27:19;21.02;;;13.57;;
24713;SDS011;12820;51.580;5.010;2023-04-06T15:32:22;22.00;;;14.10;;
24713;SDS011;12820;51.580;5.010;2023-04-06T15:37:24;21.40;;;13.35;;
24713;SDS011;12820;51.580;5.010;2023-04-06T15:42:27;21.38;;;14.07;;
24713;SDS011;12820;51.580;5.010;2023-04-06T15:47:29;19.35;;;13.27;;
24713;SDS011;12820;51.580;5.010;2023-04-06T15:52:31;23.88;;;15.02;;
24713;SDS011;12820;51.580;5.010;2023-04-06T15:57:34;20.63;;;13.93;;
24713;SDS011;12820;51.580;5.010;2023-04-06T16:02:36;17.15;;;12.35;;
24713;SDS011;12820;51.580;5.010;2023-04-06T16:07:39;19.00;;;13.13;;
24713;SDS011;12820;51.580;5.010;2023-04-06T16:12:41;18.15;;;12.75;;
24713;SDS011;12820;51.580;5.010;2023-04-06T16:17:44;21.10;;;15.02;;
24713;SDS011;12820;51.580;5.010;2023-04-06T16:22:47;21.38;;;14.88;;
24713;SDS011;12820;51.580;5.010;2023-04-06T16:27:50;19.50;;;15.02;;
24713;SDS011;12820;51.580;5.010;2023-04-06T16:32:53;19.52;;;12.88;;
24713;SDS011;12820;51.580;5.010;2023-04-06T16:37:55;19.83;;;13.70;;
24713;SDS011;12820;51.580;5.010;2023-04-06T16:42:57;21.70;;;13.77;;
24713;SDS011;12820;51.580;5.010;2023-04-06T16:48:00;19.88;;;14.73;;
24713;SDS011;12820;51.580;5.010;2023-04-06T16:53:02;22.75;;;14.68;;
24713;SDS011;12820;51.580;5.010;2023-04-06T16:58:05;21.80;;;16.05;;
24713;SDS011;12820;51.580;5.010;2023-04-06T17:03:07;22.02;;;15.50;;
24713;SDS011;12820;51.580;5.010;2023-04-06T17:08:09;21.00;;;14.75;;
24713;SDS011;12820;51.580;5.010;2023-04-06T17:13:12;20.00;;;14.77;;
24713;SDS011;12820;51.580;5.010;2023-04-06T17:18:14;21.10;;;14.40;;
24713;SDS011;12820;51.580;5.010;2023-04-06T17:23:16;20.63;;;15.20;;
24713;SDS011;12820;51.580;5.010;2023-04-06T17:28:18;22.40;;;15.18;;
24713;SDS011;12820;51.580;5.010;2023-04-06T17:33:21;22.40;;;15.73;;
24713;SDS011;12820;51.580;5.010;2023-04-06T17:38:24;24.17;;;16.48;;
24713;SDS011;12820;51.580;5.010;2023-04-06T17:43:26;27.92;;;17.35;;
24713;SDS011;12820;51.580;5.010;2023-04-06T17:48:28;27.10;;;18.00;;
24713;SDS011;12820;51.580;5.010;2023-04-06T17:53:38;26.02;;;18.35;;
24713;SDS011;12820;51.580;5.010;2023-04-06T17:58:41;30.45;;;20.00;;
24713;SDS011;12820;51.580;5.010;2023-04-06T18:03:43;32.05;;;20.08;;
24713;SDS011;12820;51.580;5.010;2023-04-06T18:08:45;29.85;;;20.45;;
24713;SDS011;12820;51.580;5.010;2023-04-06T18:13:47;33.15;;;20.92;;
24713;SDS011;12820;51.580;5.010;2023-04-06T18:18:49;29.80;;;21.50;;
24713;SDS011;12820;51.580;5.010;2023-04-06T18:23:52;34.35;;;23.85;;
24713;SDS011;12820;51.580;5.010;2023-04-06T18:28:55;35.17;;;22.73;;
24713;SDS011;12820;51.580;5.010;2023-04-06T18:33:58;37.90;;;23.77;;
24713;SDS011;12820;51.580;5.010;2023-04-06T18:39:00;40.10;;;25.52;;
24713;SDS011;12820;51.580;5.010;2023-04-06T18:44:02;34.53;;;24.20;;
24713;SDS011;12820;51.580;5.010;2023-04-06T18:49:04;37.67;;;24.17;;
24713;SDS011;12820;51.580;5.010;2023-04-06T18:54:07;39.03;;;25.05;;
24713;SDS011;12820;51.580;5.010;2023-04-06T18:59:09;44.88;;;25.88;;
24713;SDS011;12820;51.580;5.010;2023-04-06T19:04:12;43.35;;;26.23;;
24713;SDS011;12820;51.580;5.010;2023-04-06T19:09:15;41.88;;;25.13;;
24713;SDS011;12820;51.580;5.010;2023-04-06T19:14:17;39.63;;;26.52;;
24713;SDS011;12820;51.580;5.010;2023-04-06T19:19:20;36.50;;;23.70;;
24713;SDS011;12820;51.580;5.010;2023-04-06T19:24:22;31.60;;;21.02;;
24713;SDS011;12820;51.580;5.010;2023-04-06T19:29:24;34.92;;;23.95;;
24713;SDS011;12820;51.580;5.010;2023-04-06T19:34:27;43.20;;;26.40;;
24713;SDS011;12820;51.580;5.010;2023-04-06T19:39:29;44.22;;;28.45;;
24713;SDS011;12820;51.580;5.010;2023-04-06T19:44:32;40.08;;;26.08;;
24713;SDS011;12820;51.580;5.010;2023-04-06T19:49:34;41.03;;;23.42;;
24713;SDS011;12820;51.580;5.010;2023-04-06T19:54:36;30.23;;;19.38;;
24713;SDS011;12820;51.580;5.010;2023-04-06T19:59:40;28.50;;;18.30;;
24713;SDS011;12820;51.580;5.010;2023-04-06T20:04:42;28.33;;;18.92;;
24713;SDS011;12820;51.580;5.010;2023-04-06T20:09:45;37.03;;;19.52;;
24713;SDS011;12820;51.580;5.010;2023-04-06T20:14:47;34.30;;;19.80;;
24713;SDS011;12820;51.580;5.010;2023-04-06T20:19:51;31.90;;;17.45;;
24713;SDS011;12820;51.580;5.010;2023-04-06T20:24:54;29.23;;;17.27;;
24713;SDS011;12820;51.580;5.010;2023-04-06T20:29:56;34.95;;;18.85;;
24713;SDS011;12820;51.580;5.010;2023-04-06T20:34:59;35.88;;;18.70;;
24713;SDS011;12820;51.580;5.010;2023-04-06T20:40:02;45.50;;;20.55;;
24713;SDS011;12820;51.580;5.010;2023-04-06T20:45:05;39.88;;;21.10;;
24713;SDS011;12820;51.580;5.010;2023-04-06T20:50:07;37.15;;;19.30;;
24713;SDS011;12820;51.580;5.010;2023-04-06T20:55:10;41.83;;;19.83;;
24713;SDS011;12820;51.580;5.010;2023-04-06T21:00:12;44.88;;;19.98;;
24713;SDS011;12820;51.580;5.010;2023-04-06T21:05:14;39.95;;;19.92;;
24713;SDS011;12820;51.580;5.010;2023-04-06T21:10:16;39.72;;;20.25;;
24713;SDS011;12820;51.580;5.010;2023-04-06T21:15:18;46.92;;;21.35;;
24713;SDS011;12820;51.580;5.010;2023-04-06T21:20:20;41.53;;;19.13;;
24713;SDS011;12820;51.580;5.010;2023-04-06T21:25:22;43.85;;;19.58;;
24713;SDS011;12820;51.580;5.010;2023-04-06T21:30:24;39.85;;;20.00;;
24713;SDS011;12820;51.580;5.010;2023-04-06T21:35:26;45.67;;;20.13;;
24713;SDS011;12820;51.580;5.010;2023-04-06T21:40:28;45.10;;;19.55;;
24713;SDS011;12820;51.580;5.010;2023-04-06T21:45:31;42.33;;;18.55;;
24713;SDS011;12820;51.580;5.010;2023-04-06T21:50:37;47.30;;;20.60;;
24713;SDS011;12820;51.580;5.010;2023-04-06T21:55:43;40.17;;;19.25;;
24713;SDS011;12820;51.580;5.010;2023-04-06T22:00:46;41.83;;;17.77;;
24713;SDS011;12820;51.580;5.010;2023-04-06T22:05:48;38.28;;;16.75;;
24713;SDS011;12820;51.580;5.010;2023-04-06T22:10:50;30.27;;;15.93;;
24713;SDS011;12820;51.580;5.010;2023-04-06T22:15:52;35.42;;;15.52;;
24713;SDS011;12820;51.580;5.010;2023-04-06T22:20:55;29.50;;;14.05;;
24713;SDS011;12820;51.580;5.010;2023-04-06T22:25:57;29.23;;;13.85;;
24713;SDS011;12820;51.580;5.010;2023-04-06T22:31:00;29.20;;;13.27;;
24713;SDS011;12820;51.580;5.010;2023-04-06T22:36:02;28.27;;;12.30;;
24713;SDS011;12820;51.580;5.010;2023-04-06T22:41:04;29.45;;;12.73;;
24713;SDS011;12820;51.580;5.010;2023-04-06T22:46:09;30.48;;;13.85;;
24713;SDS011;12820;51.580;5.010;2023-04-06T22:51:11;28.27;;;12.93;;
24713;SDS011;12820;51.580;5.010;2023-04-06T22:56:13;32.85;;;13.55;;
24713;SDS011;12820;51.580;5.010;2023-04-06T23:01:15;27.90;;;13.75;;
24713;SDS011;12820;51.580;5.010;2023-04-06T23:06:17;27.50;;;13.05;;
24713;SDS011;12820;51.580;5.010;2023-04-06T23:11:20;30.10;;;13.18;;
24713;SDS011;12820;51.580;5.010;2023-04-06T23:16:23;26.85;;;13.25;;
24713;SDS011;12820;51.580;5.010;2023-04-06T23:21:25;34.63;;;13.88;;
24713;SDS011;12820;51.580;5.010;2023-04-06T23:26:27;32.55;;;13.25;;
24713;SDS011;12820;51.580;5.010;2023-04-06T23:31:29;29.02;;;12.35;;
24713;SDS011;12820;51.580;5.010;2023-04-06T23:36:32;25.15;;;12.65;;
24713;SDS011;12820;51.580;5.010;2023-04-06T23:41:34;31.73;;;13.77;;
24713;SDS011;12820;51.580;5.010;2023-04-06T23:46:36;30.17;;;13.15;;
24713;SDS011;12820;51.580;5.010;2023-04-06T23:51:38;37.35;;;14.98;;
24713;SDS011;12820;51.580;5.010;2023-04-06T23:56:44;30.85;;;14.15;;
